sensor_id;sensor_type;location;lat;lon;timestamp;pressure;altitude;pressure_sealevel;temperature;humidity
54236;BME280;40151;43.606;1.472;2023-05-12T00:01:23;99461.59;;;19.80;51.22
54236;BME280;40151;43.606;1.472;2023-05-12T00:03:48;99459.88;;;19.79;51.25
54236;BME280;40151;43.606;1.472;2023-05-12T00:06:13;99462.53;;;19.79;51.40
54236;BME280;40151;43.606;1.472;2023-05-12T00:08:39;99456.31;;;19.80;51.12
54236;BME280;40151;43.606;1.472;2023-05-12T00:11:04;99456.50;;;19.77;51.19
54236;BME280;40151;43.606;1.472;2023-05-12T00:13:30;99458.19;;;19.78;51.23
54236;BME280;40151;43.606;1.472;2023-05-12T00:15:55;99456.50;;;19.77;51.38
54236;BME280;40151;43.606;1.472;2023-05-12T00:18:23;99452.97;;;19.77;51.18
54236;BME280;40151;43.606;1.472;2023-05-12T00:20:49;99455.69;;;19.75;51.46
54236;BME280;40151;43.606;1.472;2023-05-12T00:23:14;99448.63;;;19.76;51.36
54236;BME280;40151;43.606;1.472;2023-05-12T00:25:39;99445.28;;;19.72;51.20
54236;BME280;40151;43.606;1.472;2023-05-12T00:28:05;99443.50;;;19.72;51.12
54236;BME280;40151;43.606;1.472;2023-05-12T00:30:30;99447.00;;;19.73;51.40
54236;BME280;40151;43.606;1.472;2023-05-12T00:32:55;99446.13;;;19.72;51.28
54236;BME280;40151;43.606;1.472;2023-05-12T00:35:21;99437.34;;;19.72;51.39
54236;BME280;40151;43.606;1.472;2023-05-12T00:37:46;99433.91;;;19.70;51.30
54236;BME280;40151;43.606;1.472;2023-05-12T00:40:12;99434.78;;;19.70;51.32
54236;BME280;40151;43.606;1.472;2023-05-12T00:42:37;99433.91;;;19.70;51.23
54236;BME280;40151;43.606;1.472;2023-05-12T00:45:03;99428.53;;;19.71;51.35
54236;BME280;40151;43.606;1.472;2023-05-12T00:47:29;99428.63;;;19.70;51.37
54236;BME280;40151;43.606;1.472;2023-05-12T00:49:55;99432.06;;;19.72;51.15
54236;BME280;40151;43.606;1.472;2023-05-12T00:52:21;99431.47;;;19.67;51.28
54236;BME280;40151;43.606;1.472;2023-05-12T00:54:47;99429.56;;;19.69;51.25
54236;BME280;40151;43.606;1.472;2023-05-12T00:57:12;99427.94;;;19.66;51.30
54236;BME280;40151;43.606;1.472;2023-05-12T00:59:38;99423.53;;;19.67;51.38
54236;BME280;40151;43.606;1.472;2023-05-12T01:02:03;99422.66;;;19.66;51.30
54236;BME280;40151;43.606;1.472;2023-05-12T01:04:30;99407.78;;;19.64;51.59
54236;BME280;40151;43.606;1.472;2023-05-12T01:07:13;99414.78;;;19.65;51.21
54236;BME280;40151;43.606;1.472;2023-05-12T01:09:39;99412.13;;;19.65;51.38
54236;BME280;40151;43.606;1.472;2023-05-12T01:12:05;99412.25;;;19.63;51.38
54236;BME280;40151;43.606;1.472;2023-05-12T01:14:30;99406.09;;;19.63;51.20
54236;BME280;40151;43.606;1.472;2023-05-12T01:16:59;99403.44;;;19.63;51.38
54236;BME280;40151;43.606;1.472;2023-05-12T01:22:05;99399.03;;;19.63;51.31
54236;BME280;40151;43.606;1.472;2023-05-12T01:24:31;99403.53;;;19.61;51.42
54236;BME280;40151;43.606;1.472;2023-05-12T01:26:59;99408.81;;;19.61;51.42
54236;BME280;40151;43.606;1.472;2023-05-12T01:29:26;99404.56;;;19.58;51.37
54236;BME280;40151;43.606;1.472;2023-05-12T01:31:52;99409.75;;;19.60;51.32
54236;BME280;40151;43.606;1.472;2023-05-12T01:34:19;99414.97;;;19.62;51.18
54236;BME280;40151;43.606;1.472;2023-05-12T01:36:45;99409.75;;;19.60;51.40
54236;BME280;40151;43.606;1.472;2023-05-12T01:39:10;99413.44;;;19.57;51.29
54236;BME280;40151;43.606;1.472;2023-05-12T01:41:37;99404.56;;;19.58;51.35
54236;BME280;40151;43.606;1.472;2023-05-12T01:44:02;99403.78;;;19.56;51.39
54236;BME280;40151;43.606;1.472;2023-05-12T01:46:28;99402.84;;;19.57;51.31
54236;BME280;40151;43.606;1.472;2023-05-12T01:48:53;99394.16;;;19.55;51.65
54236;BME280;40151;43.606;1.472;2023-05-12T01:51:18;99392.34;;;19.56;51.60
54236;BME280;40151;43.606;1.472;2023-05-12T01:53:44;99387.03;;;19.56;51.32
54236;BME280;40151;43.606;1.472;2023-05-12T01:56:09;99386.97;;;19.57;51.36
54236;BME280;40151;43.606;1.472;2023-05-12T01:58:35;99391.50;;;19.55;51.58
54236;BME280;40151;43.606;1.472;2023-05-12T02:01:00;99385.44;;;19.53;51.59
54236;BME280;40151;43.606;1.472;2023-05-12T02:03:25;99386.28;;;19.54;51.37
54236;BME280;40151;43.606;1.472;2023-05-12T02:05:51;99390.91;;;19.50;51.67
54236;BME280;40151;43.606;1.472;2023-05-12T02:08:16;99385.44;;;19.53;51.65
54236;BME280;40151;43.606;1.472;2023-05-12T02:10:42;99378.44;;;19.52;51.40
54236;BME280;40151;43.606;1.472;2023-05-12T02:13:07;99379.44;;;19.50;51.85
54236;BME280;40151;43.606;1.472;2023-05-12T02:15:32;99369.66;;;19.52;51.54
54236;BME280;40151;43.606;1.472;2023-05-12T02:17:58;99375.97;;;19.49;51.56
54236;BME280;40151;43.606;1.472;2023-05-12T02:20:23;99373.31;;;19.49;51.64
54236;BME280;40151;43.606;1.472;2023-05-12T02:22:49;99364.50;;;19.49;51.61
54236;BME280;40151;43.606;1.472;2023-05-12T02:25:14;99377.75;;;19.49;51.52
54236;BME280;40151;43.606;1.472;2023-05-12T02:27:40;99369.72;;;19.50;51.71
54236;BME280;40151;43.606;1.472;2023-05-12T02:30:05;99365.38;;;19.49;51.47
54236;BME280;40151;43.606;1.472;2023-05-12T02:32:31;99371.63;;;19.48;51.69
54236;BME280;40151;43.606;1.472;2023-05-12T02:34:57;99376.91;;;19.48;51.59
54236;BME280;40151;43.606;1.472;2023-05-12T02:37:22;99379.56;;;19.48;51.74
54236;BME280;40151;43.606;1.472;2023-05-12T02:39:47;99375.22;;;19.47;51.73
54236;BME280;40151;43.606;1.472;2023-05-12T02:42:13;99372.56;;;19.47;51.50
54236;BME280;40151;43.606;1.472;2023-05-12T02:44:38;99378.69;;;19.48;51.37
54236;BME280;40151;43.606;1.472;2023-05-12T02:47:04;99381.41;;;19.46;51.64
54236;BME280;40151;43.606;1.472;2023-05-12T02:49:29;99376.22;;;19.44;51.65
54236;BME280;40151;43.606;1.472;2023-05-12T02:51:56;99370.16;;;19.42;51.62
54236;BME280;40151;43.606;1.472;2023-05-12T02:54:21;99381.59;;;19.43;51.48
54236;BME280;40151;43.606;1.472;2023-05-12T02:56:47;99365.81;;;19.41;51.76
54236;BME280;40151;43.606;1.472;2023-05-12T02:59:12;99367.59;;;19.41;51.55
54236;BME280;40151;43.606;1.472;2023-05-12T03:01:38;99360.50;;;19.41;51.52
54236;BME280;40151;43.606;1.472;2023-05-12T03:04:03;99359.66;;;19.41;51.73
54236;BME280;40151;43.606;1.472;2023-05-12T03:06:29;99363.25;;;19.40;51.73
54236;BME280;40151;43.606;1.472;2023-05-12T03:08:54;99359.75;;;19.39;51.64
54236;BME280;40151;43.606;1.472;2023-05-12T03:11:20;99355.41;;;19.38;51.58
54236;BME280;40151;43.606;1.472;2023-05-12T03:13:46;99357.94;;;19.40;51.73
54236;BME280;40151;43.606;1.472;2023-05-12T03:16:12;99350.00;;;19.40;51.58
54236;BME280;40151;43.606;1.472;2023-05-12T03:18:37;99353.59;;;19.39;51.69
54236;BME280;40151;43.606;1.472;2023-05-12T03:21:03;99351.03;;;19.37;51.56
54236;BME280;40151;43.606;1.472;2023-05-12T03:23:29;99358.13;;;19.37;51.55
54236;BME280;40151;43.606;1.472;2023-05-12T03:25:54;99346.00;;;19.32;51.59
54236;BME280;40151;43.606;1.472;2023-05-12T03:28:20;99339.84;;;19.32;51.93
54236;BME280;40151;43.606;1.472;2023-05-12T03:30:47;99347.72;;;19.34;51.52
54236;BME280;40151;43.606;1.472;2023-05-12T03:33:12;99351.31;;;19.32;51.59
54236;BME280;40151;43.606;1.472;2023-05-12T03:35:38;99342.41;;;19.34;51.63
54236;BME280;40151;43.606;1.472;2023-05-12T03:38:03;99339.78;;;19.34;51.68
54236;BME280;40151;43.606;1.472;2023-05-12T03:40:29;99340.72;;;19.32;51.61
54236;BME280;40151;43.606;1.472;2023-05-12T03:42:55;99337.31;;;19.30;51.70
54236;BME280;40151;43.606;1.472;2023-05-12T03:45:20;99339.00;;;19.31;51.76
54236;BME280;40151;43.606;1.472;2023-05-12T03:47:46;99332.03;;;19.30;51.68
54236;BME280;40151;43.606;1.472;2023-05-12T03:50:11;99339.84;;;19.32;51.86
54236;BME280;40151;43.606;1.472;2023-05-12T03:52:37;99335.69;;;19.28;51.84
54236;BME280;40151;43.606;1.472;2023-05-12T03:55:05;99338.25;;;19.29;51.80
54236;BME280;40151;43.606;1.472;2023-05-12T03:57:32;99335.63;;;19.29;51.82
54236;BME280;40151;43.606;1.472;2023-05-12T03:59:58;99329.47;;;19.29;51.70
54236;BME280;40151;43.606;1.472;2023-05-12T04:02:24;99330.31;;;19.29;51.62
54236;BME280;40151;43.606;1.472;2023-05-12T04:04:50;99332.09;;;19.29;51.96
54236;BME280;40151;43.606;1.472;2023-05-12T04:07:16;99331.22;;;19.28;51.88
54236;BME280;40151;43.606;1.472;2023-05-12T04:09:41;99334.81;;;19.27;51.80
54236;BME280;40151;43.606;1.472;2023-05-12T04:12:08;99333.13;;;19.26;51.80
54236;BME280;40151;43.606;1.472;2023-05-12T04:14:34;99336.72;;;19.25;51.74
54236;BME280;40151;43.606;1.472;2023-05-12T04:16:59;99330.56;;;19.25;51.94
54236;BME280;40151;43.606;1.472;2023-05-12T04:19:24;99332.38;;;19.24;51.87
54236;BME280;40151;43.606;1.472;2023-05-12T04:21:50;99332.53;;;19.21;52.15
54236;BME280;40151;43.606;1.472;2023-05-12T04:24:15;99325.34;;;19.23;51.87
54236;BME280;40151;43.606;1.472;2023-05-12T04:26:40;99332.38;;;19.24;51.67
54236;BME280;40151;43.606;1.472;2023-05-12T04:29:06;99335.94;;;19.23;51.86
54236;BME280;40151;43.606;1.472;2023-05-12T04:31:31;99328.09;;;19.22;52.01
54236;BME280;40151;43.606;1.472;2023-05-12T04:33:57;99334.22;;;19.22;51.74
54236;BME280;40151;43.606;1.472;2023-05-12T04:36:22;99332.53;;;19.21;51.97
54236;BME280;40151;43.606;1.472;2023-05-12T04:38:47;99334.41;;;19.19;52.04
54236;BME280;40151;43.606;1.472;2023-05-12T04:41:13;99335.25;;;19.19;51.83
54236;BME280;40151;43.606;1.472;2023-05-12T04:43:38;99335.16;;;19.21;51.99
54236;BME280;40151;43.606;1.472;2023-05-12T04:46:04;99322.97;;;19.18;51.96
54236;BME280;40151;43.606;1.472;2023-05-12T04:48:29;99331.84;;;19.17;52.02
54236;BME280;40151;43.606;1.472;2023-05-12T04:50:57;99341.56;;;19.17;51.85
54236;BME280;40151;43.606;1.472;2023-05-12T04:53:23;99345.94;;;19.18;51.95
54236;BME280;40151;43.606;1.472;2023-05-12T04:55:49;99337.22;;;19.16;51.92
54236;BME280;40151;43.606;1.472;2023-05-12T04:58:15;99345.16;;;19.16;51.87
54236;BME280;40151;43.606;1.472;2023-05-12T05:00:41;99341.56;;;19.17;51.91
54236;BME280;40151;43.606;1.472;2023-05-12T05:03:06;99344.22;;;19.17;51.91
54236;BME280;40151;43.606;1.472;2023-05-12T05:05:32;99345.16;;;19.16;51.96
54236;BME280;40151;43.606;1.472;2023-05-12T05:07:57;99342.50;;;19.16;52.04
54236;BME280;40151;43.606;1.472;2023-05-12T05:10:22;99349.69;;;19.14;52.06
54236;BME280;40151;43.606;1.472;2023-05-12T05:12:48;99347.03;;;19.14;51.91
54236;BME280;40151;43.606;1.472;2023-05-12T05:15:13;99345.34;;;19.13;51.92
54236;BME280;40151;43.606;1.472;2023-05-12T05:17:39;99355.03;;;19.12;51.92
54236;BME280;40151;43.606;1.472;2023-05-12T05:20:05;99355.03;;;19.12;51.85
54236;BME280;40151;43.606;1.472;2023-05-12T05:22:31;99354.38;;;19.09;52.23
54236;BME280;40151;43.606;1.472;2023-05-12T05:24:57;99352.59;;;19.09;51.99
54236;BME280;40151;43.606;1.472;2023-05-12T05:27:22;99356.25;;;19.07;52.04
54236;BME280;40151;43.606;1.472;2023-05-12T05:29:48;99356.25;;;19.07;52.05
54236;BME280;40151;43.606;1.472;2023-05-12T05:32:14;99359.72;;;19.07;51.91
54236;BME280;40151;43.606;1.472;2023-05-12T05:34:39;99357.94;;;19.08;52.25
54236;BME280;40151;43.606;1.472;2023-05-12T05:37:05;99370.22;;;19.09;52.99
54236;BME280;40151;43.606;1.472;2023-05-12T05:39:30;99372.88;;;19.09;54.09
54236;BME280;40151;43.606;1.472;2023-05-12T05:41:56;99372.81;;;19.10;54.95
54236;BME280;40151;43.606;1.472;2023-05-12T05:44:23;99366.50;;;19.13;54.25
54236;BME280;40151;43.606;1.472;2023-05-12T05:46:49;99366.50;;;19.13;54.18
54236;BME280;40151;43.606;1.472;2023-05-12T05:49:15;99363.84;;;19.13;54.17
54236;BME280;40151;43.606;1.472;2023-05-12T05:51:40;99368.19;;;19.14;53.76
54236;BME280;40151;43.606;1.472;2023-05-12T05:54:05;99364.59;;;19.15;54.10
54236;BME280;40151;43.606;1.472;2023-05-12T05:56:31;99369.91;;;19.15;53.96
54236;BME280;40151;43.606;1.472;2023-05-12T05:58:57;99370.75;;;19.15;53.93
54236;BME280;40151;43.606;1.472;2023-05-12T06:01:26;99375.19;;;19.15;53.76
54236;BME280;40151;43.606;1.472;2023-05-12T06:03:52;99369.91;;;19.15;53.79
54236;BME280;40151;43.606;1.472;2023-05-12T06:06:17;99374.31;;;19.14;53.70
54236;BME280;40151;43.606;1.472;2023-05-12T06:08:43;99369.03;;;19.14;53.65
54236;BME280;40151;43.606;1.472;2023-05-12T06:11:08;99372.63;;;19.13;53.66
54236;BME280;40151;43.606;1.472;2023-05-12T06:13:33;99370.09;;;19.12;53.93
54236;BME280;40151;43.606;1.472;2023-05-12T06:16:00;99366.50;;;19.13;53.81
54236;BME280;40151;43.606;1.472;2023-05-12T06:18:25;99366.50;;;19.13;53.67
54236;BME280;40151;43.606;1.472;2023-05-12T06:20:51;99366.50;;;19.13;53.73
54236;BME280;40151;43.606;1.472;2023-05-12T06:23:16;99361.19;;;19.13;53.47
54236;BME280;40151;43.606;1.472;2023-05-12T06:25:41;99363.84;;;19.13;53.46
54236;BME280;40151;43.606;1.472;2023-05-12T06:28:07;99359.50;;;19.12;53.58
54236;BME280;40151;43.606;1.472;2023-05-12T06:30:33;99371.94;;;19.10;53.54
54236;BME280;40151;43.606;1.472;2023-05-12T06:32:59;99365.81;;;19.09;53.53
54236;BME280;40151;43.606;1.472;2023-05-12T06:35:24;99364.94;;;19.09;53.56
54236;BME280;40151;43.606;1.472;2023-05-12T06:37:50;99364.19;;;19.07;53.65
54236;BME280;40151;43.606;1.472;2023-05-12T06:40:15;99364.19;;;19.07;53.67
54236;BME280;40151;43.606;1.472;2023-05-12T06:42:41;99363.31;;;19.06;53.49
54236;BME280;40151;43.606;1.472;2023-05-12T06:45:07;99366.84;;;19.07;53.59
54236;BME280;40151;43.606;1.472;2023-05-12T06:47:33;99364.19;;;19.07;53.35
54236;BME280;40151;43.606;1.472;2023-05-12T06:49:59;99365.09;;;19.05;53.43
54236;BME280;40151;43.606;1.472;2023-05-12T06:52:24;99367.84;;;19.04;53.30
54236;BME280;40151;43.606;1.472;2023-05-12T06:54:50;99369.47;;;19.07;53.45
54236;BME280;40151;43.606;1.472;2023-05-12T06:57:15;99375.81;;;19.02;53.34
54236;BME280;40151;43.606;1.472;2023-05-12T06:59:41;99379.41;;;19.01;53.20
54236;BME280;40151;43.606;1.472;2023-05-12T07:02:06;99381.13;;;19.02;53.34
54236;BME280;40151;43.606;1.472;2023-05-12T07:04:32;99375.06;;;19.00;53.40
54236;BME280;40151;43.606;1.472;2023-05-12T07:06:57;99389.13;;;19.01;53.24
54236;BME280;40151;43.606;1.472;2023-05-12T07:09:22;99382.22;;;18.98;53.55
54236;BME280;40151;43.606;1.472;2023-05-12T07:11:48;99383.00;;;19.00;53.42
54236;BME280;40151;43.606;1.472;2023-05-12T07:14:14;99379.56;;;18.98;53.45
54236;BME280;40151;43.606;1.472;2023-05-12T07:16:39;99377.72;;;19.00;53.26
54236;BME280;40151;43.606;1.472;2023-05-12T07:19:05;99385.72;;;18.99;53.46
54236;BME280;40151;43.606;1.472;2023-05-12T07:21:33;99392.72;;;19.00;53.22
54236;BME280;40151;43.606;1.472;2023-05-12T07:23:58;99387.41;;;19.00;53.41
54236;BME280;40151;43.606;1.472;2023-05-12T07:26:23;99392.84;;;18.97;53.30
54236;BME280;40151;43.606;1.472;2023-05-12T07:28:49;99393.72;;;18.97;53.34
54236;BME280;40151;43.606;1.472;2023-05-12T07:31:14;99398.06;;;18.98;53.46
54236;BME280;40151;43.606;1.472;2023-05-12T07:33:40;99392.78;;;18.98;53.41
54236;BME280;40151;43.606;1.472;2023-05-12T07:36:06;99393.72;;;18.97;53.37
54236;BME280;40151;43.606;1.472;2023-05-12T07:38:33;99393.56;;;19.00;53.15
54236;BME280;40151;43.606;1.472;2023-05-12T07:40:58;99398.88;;;19.00;53.13
54236;BME280;40151;43.606;1.472;2023-05-12T07:43:24;99390.13;;;18.98;53.35
54236;BME280;40151;43.606;1.472;2023-05-12T07:45:50;99391.00;;;18.99;53.25
54236;BME280;40151;43.606;1.472;2023-05-12T07:48:15;99391.84;;;18.99;53.15
54236;BME280;40151;43.606;1.472;2023-05-12T07:50:41;99382.13;;;19.00;53.01
54236;BME280;40151;43.606;1.472;2023-05-12T07:53:09;99383.84;;;19.01;53.34
54236;BME280;40151;43.606;1.472;2023-05-12T07:55:35;99381.25;;;18.99;53.09
54236;BME280;40151;43.606;1.472;2023-05-12T07:58:00;99377.72;;;19.00;53.32
54236;BME280;40151;43.606;1.472;2023-05-12T08:00:26;99383.00;;;19.00;53.35
54236;BME280;40151;43.606;1.472;2023-05-12T08:02:52;99383.00;;;19.00;53.59
54236;BME280;40151;43.606;1.472;2023-05-12T08:05:18;99381.91;;;19.04;53.63
54236;BME280;40151;43.606;1.472;2023-05-12T08:07:43;99395.13;;;19.04;53.50
54236;BME280;40151;43.606;1.472;2023-05-12T08:10:12;99388.28;;;19.00;53.52
54236;BME280;40151;43.606;1.472;2023-05-12T08:12:38;99391.69;;;19.02;53.78
54236;BME280;40151;43.606;1.472;2023-05-12T08:15:05;99390.00;;;19.01;53.74
54236;BME280;40151;43.606;1.472;2023-05-12T08:17:31;99390.78;;;19.03;53.39
54236;BME280;40151;43.606;1.472;2023-05-12T08:19:56;99389.84;;;19.04;53.60
54236;BME280;40151;43.606;1.472;2023-05-12T08:22:22;99391.53;;;19.05;53.45
54236;BME280;40151;43.606;1.472;2023-05-12T08:24:47;99388.91;;;19.05;53.54
54236;BME280;40151;43.606;1.472;2023-05-12T08:27:12;99393.44;;;19.03;53.57
54236;BME280;40151;43.606;1.472;2023-05-12T08:29:38;99400.41;;;19.04;53.69
54236;BME280;40151;43.606;1.472;2023-05-12T08:32:04;99396.84;;;19.05;53.44
54236;BME280;40151;43.606;1.472;2023-05-12T08:34:29;99394.91;;;19.09;53.38
54236;BME280;40151;43.606;1.472;2023-05-12T08:36:55;99397.63;;;19.08;53.48
54236;BME280;40151;43.606;1.472;2023-05-12T08:39:20;99397.69;;;19.06;53.44
54236;BME280;40151;43.606;1.472;2023-05-12T08:44:34;99397.53;;;19.09;53.38
54236;BME280;40151;43.606;1.472;2023-05-12T08:47:03;99394.78;;;19.11;53.33
54236;BME280;40151;43.606;1.472;2023-05-12T08:49:31;99393.09;;;19.10;53.58
54236;BME280;40151;43.606;1.472;2023-05-12T08:51:58;99394.78;;;19.11;53.41
54236;BME280;40151;43.606;1.472;2023-05-12T08:54:26;99394.78;;;19.11;53.39
54236;BME280;40151;43.606;1.472;2023-05-12T08:56:52;99391.38;;;19.09;53.30
54236;BME280;40151;43.606;1.472;2023-05-12T08:59:18;99390.53;;;19.08;53.49
54236;BME280;40151;43.606;1.472;2023-05-12T09:01:44;99386.97;;;19.09;53.64
54236;BME280;40151;43.606;1.472;2023-05-12T09:04:11;99398.38;;;19.10;53.46
54236;BME280;40151;43.606;1.472;2023-05-12T09:06:40;99389.50;;;19.11;53.20
54236;BME280;40151;43.606;1.472;2023-05-12T09:09:06;99391.25;;;19.12;53.44
54236;BME280;40151;43.606;1.472;2023-05-12T09:11:32;99397.22;;;19.15;53.13
54236;BME280;40151;43.606;1.472;2023-05-12T09:16:27;99406.25;;;19.11;53.21
54236;BME280;40151;43.606;1.472;2023-05-12T09:18:58;99398.03;;;19.16;53.13
54236;BME280;40151;43.606;1.472;2023-05-12T09:21:24;99397.91;;;19.19;53.25
54236;BME280;40151;43.606;1.472;2023-05-12T09:23:59;99401.22;;;19.23;52.97
54236;BME280;40151;43.606;1.472;2023-05-12T09:26:27;99398.56;;;19.23;53.24
54236;BME280;40151;43.606;1.472;2023-05-12T09:28:54;99397.72;;;19.22;52.78
54236;BME280;40151;43.606;1.472;2023-05-12T09:31:22;99399.25;;;19.26;53.10
54236;BME280;40151;43.606;1.472;2023-05-12T09:33:48;99398.41;;;19.26;53.04
54236;BME280;40151;43.606;1.472;2023-05-12T09:36:19;99396.69;;;19.25;52.75
54236;BME280;40151;43.606;1.472;2023-05-12T09:38:45;99403.69;;;19.26;52.92
54236;BME280;40151;43.606;1.472;2023-05-12T09:41:11;99397.38;;;19.28;52.71
54236;BME280;40151;43.606;1.472;2023-05-12T09:43:36;99400.81;;;19.30;52.72
54236;BME280;40151;43.606;1.472;2023-05-12T09:46:08;99402.59;;;19.30;52.69
54236;BME280;40151;43.606;1.472;2023-05-12T09:48:33;99389.53;;;19.27;52.96
54236;BME280;40151;43.606;1.472;2023-05-12T09:51:00;99401.75;;;19.29;52.71
54236;BME280;40151;43.606;1.472;2023-05-12T09:53:25;99399.09;;;19.29;52.86
54236;BME280;40151;43.606;1.472;2023-05-12T09:55:51;99395.53;;;19.30;52.62
54236;BME280;40151;43.606;1.472;2023-05-12T09:58:18;99401.56;;;19.32;52.57
54236;BME280;40151;43.606;1.472;2023-05-12T10:00:44;99394.50;;;19.33;52.75
54236;BME280;40151;43.606;1.472;2023-05-12T10:03:12;99391.00;;;19.32;52.77
54236;BME280;40151;43.606;1.472;2023-05-12T10:05:49;99394.50;;;19.33;52.82
54236;BME280;40151;43.606;1.472;2023-05-12T10:08:32;99394.50;;;19.33;52.78
54236;BME280;40151;43.606;1.472;2023-05-12T10:10:59;99397.97;;;19.34;52.84
54236;BME280;40151;43.606;1.472;2023-05-12T10:13:26;99398.06;;;19.32;52.89
54236;BME280;40151;43.606;1.472;2023-05-12T10:15:54;99398.06;;;19.32;52.75
54236;BME280;40151;43.606;1.472;2023-05-12T10:18:21;99403.13;;;19.37;52.74
54236;BME280;40151;43.606;1.472;2023-05-12T10:20:47;99397.91;;;19.35;52.63
54236;BME280;40151;43.606;1.472;2023-05-12T10:23:13;99397.03;;;19.35;52.62
54236;BME280;40151;43.606;1.472;2023-05-12T10:25:41;99395.25;;;19.35;52.81
54236;BME280;40151;43.606;1.472;2023-05-12T10:28:08;99385.44;;;19.37;52.91
54236;BME280;40151;43.606;1.472;2023-05-12T10:30:35;99382.03;;;19.35;52.89
54236;BME280;40151;43.606;1.472;2023-05-12T10:33:01;99378.50;;;19.35;52.59
54236;BME280;40151;43.606;1.472;2023-05-12T10:35:34;99377.41;;;19.39;52.62
54236;BME280;40151;43.606;1.472;2023-05-12T10:38:08;99375.72;;;19.38;52.85
54236;BME280;40151;43.606;1.472;2023-05-12T10:40:34;99376.47;;;19.40;52.86
54236;BME280;40151;43.606;1.472;2023-05-12T10:43:00;99379.13;;;19.40;52.83
54236;BME280;40151;43.606;1.472;2023-05-12T10:45:25;99379.13;;;19.40;52.65
54236;BME280;40151;43.606;1.472;2023-05-12T10:47:51;99375.53;;;19.41;52.52
54236;BME280;40151;43.606;1.472;2023-05-12T10:50:26;99377.59;;;19.36;52.72
54236;BME280;40151;43.606;1.472;2023-05-12T10:52:55;99371.28;;;19.38;52.67
54236;BME280;40151;43.606;1.472;2023-05-12T10:55:41;99370.41;;;19.38;52.90
54236;BME280;40151;43.606;1.472;2023-05-12T10:58:11;99367.69;;;19.39;52.65
54236;BME280;40151;43.606;1.472;2023-05-12T11:00:49;99358.91;;;19.39;52.84
54236;BME280;40151;43.606;1.472;2023-05-12T11:03:16;99357.94;;;19.40;52.48
54236;BME280;40151;43.606;1.472;2023-05-12T11:05:57;99358.91;;;19.39;52.62
54236;BME280;40151;43.606;1.472;2023-05-12T11:08:23;99355.16;;;19.43;52.58
54236;BME280;40151;43.606;1.472;2023-05-12T11:10:49;99347.22;;;19.43;52.51
54236;BME280;40151;43.606;1.472;2023-05-12T11:13:15;99348.91;;;19.44;52.67
54236;BME280;40151;43.606;1.472;2023-05-12T11:15:43;99348.91;;;19.44;52.76
54236;BME280;40151;43.606;1.472;2023-05-12T11:18:08;99338.31;;;19.44;52.68
54236;BME280;40151;43.606;1.472;2023-05-12T11:20:34;99340.88;;;19.45;52.69
54236;BME280;40151;43.606;1.472;2023-05-12T11:22:59;99337.31;;;19.47;52.74
54236;BME280;40151;43.606;1.472;2023-05-12T11:25:26;99336.44;;;19.46;52.80
54236;BME280;40151;43.606;1.472;2023-05-12T11:27:52;99332.88;;;19.47;52.73
54236;BME280;40151;43.606;1.472;2023-05-12T11:30:18;99335.53;;;19.47;52.63
54236;BME280;40151;43.606;1.472;2023-05-12T11:32:44;99330.13;;;19.49;52.60
54236;BME280;40151;43.606;1.472;2023-05-12T11:35:13;99336.28;;;19.49;52.74
54236;BME280;40151;43.606;1.472;2023-05-12T11:37:40;99325.69;;;19.49;52.59
54236;BME280;40151;43.606;1.472;2023-05-12T11:42:41;99327.38;;;19.50;52.75
54236;BME280;40151;43.606;1.472;2023-05-12T11:45:25;99327.38;;;19.50;52.63
54236;BME280;40151;43.606;1.472;2023-05-12T11:47:51;99336.09;;;19.52;52.67
54236;BME280;40151;43.606;1.472;2023-05-12T11:50:22;99329.09;;;19.51;52.50
54236;BME280;40151;43.606;1.472;2023-05-12T11:52:47;99325.50;;;19.52;52.50
54236;BME280;40151;43.606;1.472;2023-05-12T11:55:18;99329.88;;;19.53;52.68
54236;BME280;40151;43.606;1.472;2023-05-12T11:57:54;99322.78;;;19.54;52.59
54236;BME280;40151;43.606;1.472;2023-05-12T12:00:32;99323.63;;;19.54;52.55
54236;BME280;40151;43.606;1.472;2023-05-12T12:03:05;99309.47;;;19.55;52.54
54236;BME280;40151;43.606;1.472;2023-05-12T12:05:31;99316.44;;;19.56;52.46
54236;BME280;40151;43.606;1.472;2023-05-12T12:08:21;99304.16;;;19.55;52.47
54236;BME280;40151;43.606;1.472;2023-05-12T12:10:47;99310.28;;;19.56;52.62
54236;BME280;40151;43.606;1.472;2023-05-12T12:13:18;99307.56;;;19.57;52.63
54236;BME280;40151;43.606;1.472;2023-05-12T12:15:44;99303.97;;;19.58;52.53
54236;BME280;40151;43.606;1.472;2023-05-12T12:18:09;99293.38;;;19.58;52.44
54236;BME280;40151;43.606;1.472;2023-05-12T12:20:35;99292.47;;;19.59;52.31
54236;BME280;40151;43.606;1.472;2023-05-12T12:23:00;99288.97;;;19.59;52.67
54236;BME280;40151;43.606;1.472;2023-05-12T12:25:26;99291.53;;;19.61;52.42
54236;BME280;40151;43.606;1.472;2023-05-12T12:27:51;99292.34;;;19.61;52.38
54236;BME280;40151;43.606;1.472;2023-05-12T12:30:17;99287.06;;;19.61;52.44
54236;BME280;40151;43.606;1.472;2023-05-12T12:32:43;99285.28;;;19.62;52.35
54236;BME280;40151;43.606;1.472;2023-05-12T12:35:09;99289.63;;;19.63;52.56
54236;BME280;40151;43.606;1.472;2023-05-12T12:37:35;99275.44;;;19.64;52.32
54236;BME280;40151;43.606;1.472;2023-05-12T12:40:01;99286.03;;;19.64;52.60
54236;BME280;40151;43.606;1.472;2023-05-12T12:42:33;99284.16;;;19.66;52.63
54236;BME280;40151;43.606;1.472;2023-05-12T12:44:58;99275.28;;;19.67;52.27
54236;BME280;40151;43.606;1.472;2023-05-12T12:47:24;99275.28;;;19.67;52.39
54236;BME280;40151;43.606;1.472;2023-05-12T12:49:49;99270.81;;;19.67;52.58
54236;BME280;40151;43.606;1.472;2023-05-12T12:52:15;99269.78;;;19.70;52.36
54236;BME280;40151;43.606;1.472;2023-05-12T12:54:40;99269.78;;;19.70;52.26
54236;BME280;40151;43.606;1.472;2023-05-12T12:57:05;99268.88;;;19.71;52.21
54236;BME280;40151;43.606;1.472;2023-05-12T12:59:31;99267.06;;;19.71;52.36
54236;BME280;40151;43.606;1.472;2023-05-12T13:01:57;99269.63;;;19.73;52.34
54236;BME280;40151;43.606;1.472;2023-05-12T13:04:24;99261.69;;;19.73;52.32
54236;BME280;40151;43.606;1.472;2023-05-12T13:06:49;99255.44;;;19.74;52.53